Time;durP1;ratioP1;P1;durP2;ratioP2;P2;SDS_P1;SDS_P2;PMS_P1;PMS_P2;Temp;Humidity;BMP_temperature;BMP_pressure;BME280_temperature;BME280_humidity;BME280_pressure;Samples;Min_cycle;Max_cycle;Signal;HPM_P1;HPM_P2
2022/05/20 00:00:47;;;;;;;7.72;2.45;;;;;;;21.10;46.26;99336.94;5014392;28;20166;-48
2022/05/20 00:03:13;;;;;;;6.03;2.17;;;;;;;21.08;46.43;99331.03;5014382;28;20036;-48
2022/05/20 00:05:39;;;;;;;8.63;2.67;;;;;;;21.06;46.30;99332.34;5032108;28;20021;-49
2022/05/20 00:08:06;;;;;;;8.10;2.45;;;;;;;21.01;46.24;99335.00;5014310;28;20036;-48
2022/05/20 00:10:31;;;;;;;8.25;2.67;;;;;;;20.97;46.62;99344.53;5014259;28;20025;-49
2022/05/20 00:12:59;;;;;;;9.85;2.35;;;;;;;20.91;46.74;99341.84;5014219;28;20072;-49
2022/05/20 00:15:28;;;;;;;7.47;2.40;;;;;;;20.87;47.01;99348.72;5031915;28;20029;-49
2022/05/20 00:17:55;;;;;;;7.18;2.42;;;;;;;20.85;47.07;99347.38;5031700;28;20044;-49
2022/05/20 00:20:23;;;;;;;13.57;2.65;;;;;;;20.81;47.17;99343.59;5031946;28;20025;-48
2022/05/20 00:22:49;;;;;;;7.00;2.72;;;;;;;20.79;47.45;99343.84;5014066;28;20038;-49
2022/05/20 00:28:02;;;;;;;9.30;2.75;;;;;;;20.74;47.36;99343.78;5031906;28;20502;-49
2022/05/20 00:30:29;;;;;;;7.15;2.42;;;;;;;20.70;47.54;99332.00;5031685;28;20021;-49
2022/05/20 00:32:58;;;;;;;9.77;2.70;;;;;;;20.66;47.60;99346.91;5031581;28;20029;-49
2022/05/20 00:35:24;;;;;;;8.07;2.70;;;;;;;20.60;47.67;99342.56;5031748;28;20136;-49
2022/05/20 00:37:50;;;;;;;5.65;2.38;;;;;;;20.54;47.65;99337.16;5031732;28;20407;-48
2022/05/20 00:40:19;;;;;;;8.50;2.78;;;;;;;20.50;47.77;99338.72;5013937;28;20025;-49
2022/05/20 00:42:45;;;;;;;6.20;2.22;;;;;;;20.47;47.77;99351.72;5031740;28;20056;-49
2022/05/20 00:45:12;;;;;;;8.50;2.78;;;;;;;20.43;47.64;99348.75;5031684;28;20494;-48
2022/05/20 00:47:40;;;;;;;7.07;2.25;;;;;;;20.42;47.89;99349.00;5031921;28;20414;-48
2022/05/20 00:50:10;;;;;;;7.95;2.30;;;;;;;20.41;47.67;99356.19;5031634;28;20021;-49
2022/05/20 00:52:39;;;;;;;7.03;2.38;;;;;;;20.40;47.74;99359.09;5031533;28;20026;-49
2022/05/20 00:55:11;;;;;;;4.82;2.45;;;;;;;20.39;47.58;99360.97;5031564;28;20025;-49
2022/05/20 00:57:43;;;;;;;4.13;2.03;;;;;;;20.37;47.47;99359.59;5031594;28;20029;-49
2022/05/20 01:00:21;;;;;;;5.78;2.58;;;;;;;20.34;47.54;99355.56;5013803;28;20037;-49
2022/05/20 01:02:53;;;;;;;9.52;2.60;;;;;;;20.30;47.50;99355.28;5031546;28;20500;-49
2022/05/20 01:05:31;;;;;;;8.23;2.67;;;;;;;20.28;47.48;99357.38;5031540;28;20040;-49
2022/05/20 01:07:59;;;;;;;9.68;2.53;;;;;;;20.27;47.36;99352.28;5031519;28;20095;-49
2022/05/20 01:10:25;;;;;;;7.18;2.63;;;;;;;20.31;47.04;99353.41;5031470;28;20394;-48
2022/05/20 01:12:53;;;;;;;4.10;2.30;;;;;;;20.30;47.07;99347.28;5031341;28;20506;-49
2022/05/20 01:15:19;;;;;;;6.53;2.72;;;;;;;20.30;46.84;99349.13;5013695;28;20044;-49
2022/05/20 01:17:48;;;;;;;6.70;2.08;;;;;;;20.31;46.80;99345.41;5010044;28;20046;-49
2022/05/20 01:20:30;;;;;;;8.20;2.50;;;;;;;20.28;46.82;99341.38;5010286;28;20033;-48
2022/05/20 01:23:01;;;;;;;4.75;1.98;;;;;;;20.32;46.56;99347.00;5011693;28;20042;-48
2022/05/20 01:25:29;;;;;;;10.57;2.88;;;;;;;20.35;46.44;99346.53;5010279;28;20064;-48
2022/05/20 01:27:56;;;;;;;7.18;2.22;;;;;;;20.34;46.34;99353.72;5011560;28;20022;-49
2022/05/20 01:30:26;;;;;;;6.22;2.88;;;;;;;20.30;46.49;99352.59;5011508;28;20026;-49
2022/05/20 01:32:52;;;;;;;7.45;2.50;;;;;;;20.28;46.49;99351.22;5010141;28;20609;-50
2022/05/20 01:35:28;;;;;;;6.50;2.42;;;;;;;20.22;46.38;99349.53;5010170;28;20025;-48
2022/05/20 01:37:53;;;;;;;5.10;2.30;;;;;;;20.21;46.45;99358.59;5010231;28;20034;-49
2022/05/20 01:40:19;;;;;;;5.38;2.22;;;;;;;20.15;46.50;99353.19;5011498;28;20826;-49
2022/05/20 01:43:10;;;;;;;4.13;2.40;;;;;;;20.11;46.54;99360.06;5010323;28;20431;-49
2022/05/20 01:45:42;;;;;;;8.32;2.50;;;;;;;20.08;46.75;99351.75;5014970;28;20030;-49
2022/05/20 01:48:29;;;;;;;6.88;2.35;;;;;;;20.00;46.91;99353.00;5014931;28;20057;-48
2022/05/20 01:50:55;;;;;;;7.85;2.53;;;;;;;19.95;46.73;99350.25;5013495;28;20052;-49
2022/05/20 01:53:54;;;;;;;4.22;2.22;;;;;;;19.96;46.79;99349.22;5013491;28;20026;-49
2022/05/20 01:56:36;;;;;;;9.35;2.30;;;;;;;19.91;47.06;99349.94;5014786;28;20192;-49
2022/05/20 01:59:12;;;;;;;9.23;2.47;;;;;;;19.91;46.61;99341.94;5014742;28;20399;-49
2022/05/20 02:01:56;;;;;;;8.32;2.40;;;;;;;19.91;46.94;99341.16;5013332;28;20099;-49
2022/05/20 02:04:43;;;;;;;6.97;2.05;;;;;;;19.88;46.81;99338.97;5013314;28;20030;-49
2022/05/20 02:07:19;;;;;;;8.10;2.90;;;;;;;19.85;46.92;99326.94;5014556;28;20033;-49
2022/05/20 02:09:55;;;;;;;7.22;2.40;;;;;;;19.88;46.78;99328.31;5014602;28;20403;-49
2022/05/20 02:12:25;;;;;;;5.80;2.20;;;;;;;19.88;46.68;99331.81;5014711;28;20030;-49
2022/05/20 02:15:01;;;;;;;10.85;2.45;;;;;;;19.84;46.76;99322.69;5014459;28;20025;-49
2022/05/20 02:17:33;;;;;;;9.52;2.67;;;;;;;19.82;46.68;99327.44;5027114;28;20048;-49
2022/05/20 02:20:23;;;;;;;8.65;2.65;;;;;;;19.81;46.68;99338.34;5034108;28;20034;-48
2022/05/20 02:23:01;;;;;;;9.18;3.03;;;;;;;19.80;46.65;99334.06;5034063;28;20455;-49
2022/05/20 02:25:31;;;;;;;5.32;2.20;;;;;;;19.79;46.73;99332.47;5033979;28;20037;-49
2022/05/20 02:28:09;;;;;;;5.20;2.28;;;;;;;19.73;46.92;99332.38;5016152;28;20506;-49
2022/05/20 02:30:35;;;;;;;6.13;2.25;;;;;;;19.71;46.83;99326.47;5033878;28;20083;-48
2022/05/20 02:33:09;;;;;;;9.18;2.38;;;;;;;19.72;46.99;99327.31;5015953;28;20030;-49
2022/05/20 02:35:36;;;;;;;8.60;2.72;;;;;;;19.74;46.97;99320.69;5033911;28;20033;-49
2022/05/20 02:38:23;;;;;;;8.27;2.33;;;;;;;19.76;46.82;99312.44;5015921;28;20018;-48
2022/05/20 02:40:51;;;;;;;6.50;2.20;;;;;;;19.74;46.89;99309.22;5015897;28;20037;-49
2022/05/20 02:43:19;;;;;;;4.47;2.10;;;;;;;19.74;46.81;99318.03;5015852;28;20036;-49
2022/05/20 02:45:47;;;;;;;7.25;2.50;;;;;;;19.69;46.97;99306.44;5033556;28;20136;-48
2022/05/20 02:48:16;;;;;;;4.88;1.95;;;;;;;19.68;46.99;99318.13;5033594;28;20017;-48
2022/05/20 02:50:42;;;;;;;7.88;2.70;;;;;;;19.68;46.91;99315.47;5033416;28;20486;-49
2022/05/20 02:53:08;;;;;;;4.72;2.22;;;;;;;19.65;47.04;99310.66;5015627;28;20100;-49
2022/05/20 02:55:34;;;;;;;6.53;2.58;;;;;;;19.63;46.96;99302.91;5033315;28;20066;-49
2022/05/20 02:58:00;;;;;;;8.02;2.70;;;;;;;19.64;47.04;99315.19;5033434;28;20490;-49
2022/05/20 03:05:55;;;;;;;8.38;2.33;;;;;;;19.54;47.24;99299.06;5033305;28;20431;-49
2022/05/20 03:08:21;;;;;;;9.23;2.47;;;;;;;19.54;47.15;99304.38;5033192;28;20104;-49
2022/05/20 03:10:47;;;;;;;5.82;2.17;;;;;;;19.50;47.31;99295.28;5033040;28;20100;-49
2022/05/20 03:13:14;;;;;;;7.13;2.17;;;;;;;19.50;47.31;99306.72;5015362;28;20026;-49
2022/05/20 03:15:41;;;;;;;10.32;2.17;;;;;;;19.52;47.37;99301.16;5015268;28;20037;-48
2022/05/20 03:18:12;;;;;;;5.47;2.22;;;;;;;19.50;47.30;99306.72;5032812;28;20053;-48
2022/05/20 03:20:41;;;;;;;6.57;2.40;;;;;;;19.50;47.47;99305.91;5015147;28;20040;-49
2022/05/20 03:23:09;;;;;;;6.55;2.25;;;;;;;19.51;47.24;99307.53;5032910;28;20033;-49
2022/05/20 03:25:37;;;;;;;6.60;2.42;;;;;;;19.50;47.50;99303.25;5032795;28;20029;-49
2022/05/20 03:28:04;;;;;;;6.55;2.30;;;;;;;19.47;47.34;99306.41;5032763;28;20166;-48
2022/05/20 03:30:29;;;;;;;5.82;2.65;;;;;;;19.47;47.46;99309.84;5032716;28;20052;-48
2022/05/20 03:32:55;;;;;;;5.13;2.22;;;;;;;19.50;47.63;99303.25;5014929;28;20022;-49
2022/05/20 03:35:21;;;;;;;3.90;2.17;;;;;;;19.47;47.58;99301.06;5014784;28;20025;-49
2022/05/20 03:37:47;;;;;;;7.32;2.30;;;;;;;19.48;47.64;99294.72;5032608;28;20506;-49
2022/05/20 03:40:12;;;;;;;7.40;2.40;;;;;;;19.48;47.47;99292.03;5032520;28;20529;-49
2022/05/20 03:42:38;;;;;;;6.20;2.25;;;;;;;19.49;47.47;99291.78;5032513;28;20051;-49
2022/05/20 03:45:04;;;;;;;9.18;2.20;;;;;;;19.51;47.45;99296.88;5032495;28;20426;-48
2022/05/20 03:47:30;;;;;;;6.32;2.70;;;;;;;19.50;47.59;99297.94;5014669;28;20116;-49
2022/05/20 03:49:56;;;;;;;6.70;2.08;;;;;;;19.49;47.58;99294.44;5014636;28;20079;-49
2022/05/20 03:52:22;;;;;;;7.13;2.33;;;;;;;19.48;47.63;99287.53;5014453;28;20018;-49
2022/05/20 03:54:47;;;;;;;7.25;2.53;;;;;;;19.49;47.72;99285.66;5032284;28;20552;-49
2022/05/20 03:57:13;;;;;;;9.23;2.30;;;;;;;19.47;47.64;99293.09;5032272;28;20024;-49
2022/05/20 03:59:39;;;;;;;8.85;2.38;;;;;;;19.44;47.73;99296.25;5014457;28;20033;-49
2022/05/20 04:02:08;;;;;;;5.18;2.50;;;;;;;19.43;47.74;99284.78;5032192;28;20021;-48
2022/05/20 04:04:43;;;;;;;3.67;2.17;;;;;;;19.41;47.96;99288.72;5032104;28;20028;-49
2022/05/20 04:07:13;;;;;;;10.35;2.20;;;;;;;19.39;47.93;99296.97;5031691;28;20060;-48
2022/05/20 04:09:39;;;;;;;6.13;2.53;;;;;;;19.42;47.81;99293.00;5032101;28;20442;-49
2022/05/20 04:12:08;;;;;;;9.20;2.20;;;;;;;19.45;47.81;99284.53;5014202;28;20051;-49
2022/05/20 04:14:35;;;;;;;12.63;3.13;;;;;;;19.46;47.81;99296.81;5014221;28;20458;-49
2022/05/20 04:17:02;;;;;;;6.72;2.50;;;;;;;19.46;48.01;99297.59;5031724;28;20467;-49
2022/05/20 04:19:30;;;;;;;6.70;2.50;;;;;;;19.46;48.04;99302.13;5014105;28;20505;-49
2022/05/20 04:22:01;;;;;;;8.48;2.22;;;;;;;19.48;47.91;99295.50;5031905;28;20060;-48
2022/05/20 04:24:27;;;;;;;4.93;2.15;;;;;;;19.53;47.80;99300.88;5014223;28;20037;-49
2022/05/20 04:26:53;;;;;;;8.38;2.30;;;;;;;19.59;47.66;99293.78;5031912;28;20025;-49
2022/05/20 04:29:19;;;;;;;6.97;2.05;;;;;;;19.65;47.58;99289.34;5014111;28;20430;-49
2022/05/20 04:31:48;;;;;;;6.18;2.47;;;;;;;19.74;47.39;99293.25;5032006;28;20091;-49
2022/05/20 04:34:14;;;;;;;9.02;2.35;;;;;;;19.93;47.17;99291.09;5031771;28;20075;-49
2022/05/20 04:36:40;;;;;;;6.50;2.58;;;;;;;20.35;46.58;99294.00;5031749;28;20029;-48
2022/05/20 04:39:06;;;;;;;12.07;2.70;;;;;;;20.78;45.25;99299.53;5014251;28;20390;-49
2022/05/20 04:47:11;;;;;;;6.57;2.30;;;;;;;21.67;42.93;99294.66;5031704;28;20526;-47
2022/05/20 04:49:40;;;;;;;5.85;1.88;;;;;;;21.97;42.54;99296.69;5031688;28;20065;-47
2022/05/20 04:52:06;;;;;;;7.55;2.40;;;;;;;22.17;42.46;99303.19;5013803;28;20026;-47
2022/05/20 04:54:50;;;;;;;6.18;2.05;;;;;;;22.25;41.90;99292.81;5013853;28;20112;-47
2022/05/20 04:57:24;;;;;;;9.38;2.10;;;;;;;22.25;42.05;99298.16;5031609;28;20043;-47
2022/05/20 04:59:53;;;;;;;5.13;2.17;;;;;;;22.36;41.52;99293.66;5031568;28;20025;-47
2022/05/20 05:02:20;;;;;;;8.20;2.80;;;;;;;22.56;41.15;99300.94;5031452;28;20050;-47
2022/05/20 05:04:46;;;;;;;4.32;1.75;;;;;;;22.85;40.50;99311.97;5031515;28;20017;-48
2022/05/20 05:07:12;;;;;;;6.75;2.70;;;;;;;23.36;39.67;99300.47;5031460;28;20021;-47
2022/05/20 05:09:41;;;;;;;10.18;2.42;;;;;;;23.98;38.35;99303.88;5031468;28;20021;-47
2022/05/20 05:12:08;;;;;;;7.32;2.17;;;;;;;24.22;37.35;99306.72;5031311;28;20034;-49
2022/05/20 05:14:40;;;;;;;11.65;2.78;;;;;;;24.44;37.32;99303.66;5031392;28;20025;-48
2022/05/20 05:17:08;;;;;;;10.90;2.50;;;;;;;24.84;36.46;99309.91;5031061;28;20149;-49
2022/05/20 05:19:39;;;;;;;12.30;2.63;;;;;;;25.14;35.72;99293.84;5034477;28;20044;-48
2022/05/20 05:22:06;;;;;;;9.52;2.55;;;;;;;25.26;35.54;99281.66;5035159;28;20064;-47
2022/05/20 05:24:34;;;;;;;6.15;2.15;;;;;;;25.50;34.91;99294.34;5035078;28;20029;-47
2022/05/20 05:27:00;;;;;;;10.70;2.40;;;;;;;25.74;34.56;99299.75;5035039;28;20025;-47
2022/05/20 05:29:26;;;;;;;8.30;2.35;;;;;;;26.35;33.54;99292.06;5035043;28;20021;-47
2022/05/20 05:31:53;;;;;;;9.00;2.35;;;;;;;26.78;32.70;99300.09;5034915;28;20049;-47
2022/05/20 05:34:20;;;;;;;30.13;4.32;;;;;;;27.08;32.22;99302.31;5034936;28;20390;-47
2022/05/20 05:36:46;;;;;;;17.15;2.55;;;;;;;27.35;31.77;99294.63;5034869;28;20506;-47
2022/05/20 05:39:12;;;;;;;8.40;2.35;;;;;;;27.84;31.30;99291.25;5034853;28;20021;-48
2022/05/20 05:41:38;;;;;;;4.70;2.25;;;;;;;28.19;30.17;99299.78;5034783;28;20037;-48
2022/05/20 05:44:04;;;;;;;4.38;2.08;;;;;;;28.75;29.31;99295.03;5034753;28;20018;-47
2022/05/20 05:46:30;;;;;;;9.80;2.30;;;;;;;29.23;28.66;99305.25;5034665;28;20391;-48
2022/05/20 05:48:57;;;;;;;6.55;2.17;;;;;;;29.58;27.75;99307.34;5034684;28;20033;-47
2022/05/20 05:51:24;;;;;;;6.75;2.33;;;;;;;30.02;27.52;99311.84;5034513;28;20025;-47
2022/05/20 05:53:50;;;;;;;5.50;1.88;;;;;;;30.34;26.69;99312.56;5016758;28;20423;-48
2022/05/20 05:56:16;;;;;;;7.05;2.92;;;;;;;30.32;26.55;99317.50;5034555;28;20396;-47
2022/05/20 05:58:41;;;;;;;7.63;2.20;;;;;;;30.60;26.15;99326.13;5034404;28;20080;-47
2022/05/20 06:01:07;;;;;;;6.43;2.20;;;;;;;30.83;25.93;99326.00;5034423;28;20558;-47
2022/05/20 06:03:35;;;;;;;5.75;1.80;;;;;;;30.98;25.43;99324.75;5034299;28;20511;-47
2022/05/20 06:06:01;;;;;;;6.57;1.90;;;;;;;31.31;24.99;99318.75;5034368;28;20033;-47
2022/05/20 06:08:26;;;;;;;6.50;2.10;;;;;;;31.69;24.52;99320.75;5034291;28;20025;-48
2022/05/20 06:10:52;;;;;;;8.50;3.05;;;;;;;31.69;24.32;99316.13;5034165;28;20072;-48
2022/05/20 06:13:26;;;;;;;9.25;1.95;;;;;;;31.90;24.46;99320.84;5034250;28;20021;-48
2022/05/20 06:15:55;;;;;;;9.18;2.13;;;;;;;31.89;24.28;99320.00;5034237;28;20049;-48
2022/05/20 06:18:22;;;;;;;7.88;1.80;;;;;;;31.91;24.09;99315.06;5034050;28;20403;-48
2022/05/20 06:20:48;;;;;;;5.90;1.80;;;;;;;31.72;24.20;99315.47;5034118;28;20022;-48
2022/05/20 06:23:15;;;;;;;4.78;1.90;;;;;;;32.04;23.63;99310.56;5034089;28;20033;-48
2022/05/20 06:25:42;;;;;;;10.15;2.25;;;;;;;32.36;23.47;99317.22;5033952;28;20048;-48
2022/05/20 06:28:14;;;;;;;4.80;1.80;;;;;;;32.66;22.86;99325.34;5033962;28;20022;-47
2022/05/20 06:30:41;;;;;;;6.65;2.25;;;;;;;32.93;22.55;99317.75;5033479;28;20033;-47
2022/05/20 06:33:07;;;;;;;7.45;1.98;;;;;;;33.15;22.37;99327.50;5033681;28;20029;-47
2022/05/20 06:41:07;;;;;;;10.48;2.38;;;;;;;33.90;21.73;99323.78;5034034;28;20465;-48
2022/05/20 06:43:33;;;;;;;6.80;2.67;;;;;;;33.51;21.47;99332.22;5033592;28;20029;-47
2022/05/20 06:46:02;;;;;;;4.35;1.95;;;;;;;33.74;21.63;99319.00;5033627;28;20108;-47
2022/05/20 06:48:45;;;;;;;7.47;2.20;;;;;;;34.61;21.06;99317.78;5033450;28;20025;-48
2022/05/20 06:51:15;;;;;;;9.05;2.88;;;;;;;34.69;20.41;99320.72;5033342;28;20112;-48
2022/05/20 06:53:41;;;;;;;5.50;1.90;;;;;;;34.71;20.72;99316.53;5033325;28;20097;-48
2022/05/20 06:56:08;;;;;;;4.45;1.90;;;;;;;34.69;20.27;99324.25;5033336;28;20037;-50
2022/05/20 06:58:33;;;;;;;8.25;2.17;;;;;;;34.72;19.96;99314.59;5033394;28;20053;-48
2022/05/20 07:00:59;;;;;;;6.22;2.00;;;;;;;34.80;20.12;99328.06;5033212;28;20033;-48
2022/05/20 07:03:28;;;;;;;4.35;2.28;;;;;;;34.65;20.22;99315.16;5033384;28;20498;-48
2022/05/20 07:05:57;;;;;;;11.23;2.80;;;;;;;34.87;20.25;99318.50;5033256;28;20388;-48
2022/05/20 07:08:24;;;;;;;4.97;1.80;;;;;;;35.13;19.98;99320.75;5033082;28;20105;-50
2022/05/20 07:10:50;;;;;;;10.40;2.47;;;;;;;35.32;20.28;99320.13;5015255;28;20032;-49
2022/05/20 07:13:16;;;;;;;6.70;1.73;;;;;;;35.42;19.82;99316.88;5033089;28;20021;-48
2022/05/20 07:15:41;;;;;;;37.92;3.83;;;;;;;35.32;19.73;99317.38;5032981;28;20056;-50
2022/05/20 07:18:07;;;;;;;9.13;1.90;;;;;;;35.14;20.08;99314.94;5015048;28;20081;-48
2022/05/20 07:20:33;;;;;;;7.53;2.03;;;;;;;34.77;20.38;99330.69;5032814;28;20055;-48
2022/05/20 07:22:59;;;;;;;5.63;1.70;;;;;;;34.97;20.45;99316.06;5032925;28;20041;-48
2022/05/20 07:25:25;;;;;;;10.65;2.40;;;;;;;35.30;19.92;99315.00;5015030;28;20021;-48
2022/05/20 07:27:51;;;;;;;7.35;1.67;;;;;;;34.99;20.02;99313.78;5015119;28;20091;-48
2022/05/20 07:30:16;;;;;;;5.70;1.50;;;;;;;34.80;20.01;99319.09;5032768;28;20466;-48
2022/05/20 07:32:42;;;;;;;6.65;1.67;;;;;;;34.56;20.48;99320.72;5032680;28;20120;-48
2022/05/20 07:35:10;;;;;;;16.67;1.85;;;;;;;34.15;20.81;99300.06;5014936;28;20022;-49
2022/05/20 07:37:37;;;;;;;11.15;1.90;;;;;;;33.88;21.24;99318.66;5032652;28;20101;-48
2022/05/20 07:40:04;;;;;;;12.75;2.67;;;;;;;34.30;20.38;99312.97;5032298;28;20018;-48
2022/05/20 07:42:31;;;;;;;22.40;2.63;;;;;;;34.98;20.20;99320.38;5031885;28;20033;-49
2022/05/20 07:44:56;;;;;;;17.10;3.85;;;;;;;35.29;19.89;99301.69;5032709;28;20127;-49
2022/05/20 07:47:24;;;;;;;14.98;3.55;;;;;;;35.56;19.61;99311.75;5032395;28;20108;-49
2022/05/20 07:49:50;;;;;;;16.55;2.60;;;;;;;35.63;19.23;99302.94;5032400;28;20506;-50
2022/05/20 07:55:03;;;;;;;20.00;2.80;;;;;;;35.40;19.34;99297.31;5032599;28;20032;-48
2022/05/20 07:57:30;;;;;;;13.00;2.63;;;;;;;35.53;19.24;99309.72;5014454;28;20029;-47
2022/05/20 08:00:04;;;;;;;;;;;;;;;36.06;19.06;99297.69;5032630;28;20049;-50
2022/05/20 08:02:30;;;;;;;11.25;3.53;;;;;;;36.30;18.60;99292.03;5014444;28;20293;-49
2022/05/20 08:04:58;;;;;;;16.80;3.25;;;;;;;36.75;18.50;99296.09;5032279;28;20214;-49
2022/05/20 08:07:32;;;;;;;8.05;2.65;;;;;;;37.23;17.76;99286.78;5032175;28;20033;-49
2022/05/20 08:10:03;;;;;;;11.95;3.33;;;;;;;37.63;17.59;99275.38;5014481;28;20069;-48
2022/05/20 08:12:29;;;;;;;7.28;2.88;;;;;;;37.77;17.59;99292.00;5031950;28;20112;-48
2022/05/20 08:14:55;;;;;;;10.88;1.90;;;;;;;37.80;17.46;99286.97;5014325;28;20043;-50
2022/05/20 08:17:24;;;;;;;11.85;2.22;;;;;;;37.91;17.36;99291.44;5031758;28;20033;-49
2022/05/20 08:19:52;;;;;;;8.20;1.70;;;;;;;38.04;16.97;99293.97;5014685;28;20033;-50
2022/05/20 08:22:22;;;;;;;8.18;2.22;;;;;;;37.92;16.77;99275.78;5031811;28;20029;-50
2022/05/20 08:24:58;;;;;;;9.63;2.00;;;;;;;38.29;16.70;99294.31;5031872;28;20018;-48
2022/05/20 08:27:26;;;;;;;14.05;1.90;;;;;;;38.53;16.97;99271.91;5031811;28;20029;-50
2022/05/20 08:29:53;;;;;;;7.07;1.85;;;;;;;39.06;16.12;99273.66;5014229;28;20018;-50
2022/05/20 08:32:19;;;;;;;9.23;2.70;;;;;;;39.15;16.51;99262.38;5031708;28;20026;-50
2022/05/20 08:34:47;;;;;;;8.65;1.70;;;;;;;38.80;16.51;99262.78;5014119;28;20060;-49
2022/05/20 08:37:15;;;;;;;4.07;1.67;;;;;;;38.36;16.44;99269.72;5031794;28;20117;-50
2022/05/20 08:39:41;;;;;;;11.93;2.20;;;;;;;37.88;17.09;99272.19;5031723;28;20033;-48
2022/05/20 08:42:15;;;;;;;10.77;1.90;;;;;;;37.57;17.18;99279.56;5031739;28;20025;-50
2022/05/20 08:44:42;;;;;;;6.88;1.48;;;;;;;37.07;17.60;99276.75;5031789;28;20029;-48
2022/05/20 08:47:32;;;;;;;10.18;2.05;;;;;;;37.03;17.91;99281.34;5031537;28;20415;-48
2022/05/20 08:50:04;;;;;;;5.20;2.15;;;;;;;37.47;17.89;99267.25;5031705;28;20105;-48
2022/05/20 08:52:30;;;;;;;9.20;1.83;;;;;;;38.21;17.26;99266.00;5033296;28;20025;-47
2022/05/20 08:54:56;;;;;;;5.72;1.48;;;;;;;38.22;16.77;99251.16;5017953;28;20076;-48
2022/05/20 08:57:32;;;;;;;2.65;1.52;;;;;;;38.17;16.84;99243.22;5017770;28;20030;-48
2022/05/20 08:59:58;;;;;;;5.03;1.95;;;;;;;38.05;17.15;99248.94;5035558;28;20491;-50
2022/05/20 09:02:24;;;;;;;6.28;1.60;;;;;;;37.86;17.20;99244.38;5035474;28;20026;-50
2022/05/20 09:04:50;;;;;;;3.72;1.83;;;;;;;37.12;17.44;99251.81;5017666;28;20036;-49
2022/05/20 09:07:18;;;;;;;8.45;1.70;;;;;;;36.62;18.23;99220.75;5035437;28;20029;-48
2022/05/20 09:10:01;;;;;;;3.45;1.73;;;;;;;36.24;18.38;99232.53;5017610;28;20022;-49
2022/05/20 09:12:42;;;;;;;11.45;1.77;;;;;;;35.76;18.78;99249.06;5017477;28;20033;-49
2022/05/20 09:18:27;;;;;;;9.13;2.60;;;;;;;35.10;19.14;99248.59;5035045;28;20422;-48
2022/05/20 09:20:53;;;;;;;7.38;1.75;;;;;;;34.80;19.56;99226.38;5027714;28;20041;-48
2022/05/20 09:23:23;;;;;;;10.35;2.00;;;;;;;35.00;19.65;99216.38;5017316;28;20091;-48
2022/05/20 09:26:01;;;;;;;6.68;2.10;;;;;;;34.88;19.71;99209.06;5035031;28;20104;-47
2022/05/20 09:28:49;;;;;;;7.72;1.50;;;;;;;34.78;19.69;99223.22;5017307;28;20037;-49
2022/05/20 09:31:37;;;;;;;3.70;1.70;;;;;;;34.90;19.82;99214.16;5034980;28;20029;-49
2022/05/20 09:34:26;;;;;;;6.30;1.92;;;;;;;34.96;19.97;99207.31;5035049;28;20025;-49
2022/05/20 09:37:08;;;;;;;8.48;1.60;;;;;;;35.27;20.17;99200.28;5034186;28;20030;-50
2022/05/20 09:39:40;;;;;;;6.85;1.70;;;;;;;35.14;19.16;99191.38;5034970;28;20029;-48
2022/05/20 09:42:28;;;;;;;8.15;2.15;;;;;;;34.97;19.60;99193.31;5034741;28;20029;-48
2022/05/20 09:45:00;;;;;;;6.20;1.80;;;;;;;34.94;19.81;99193.22;5034882;28;20021;-48
2022/05/20 09:47:54;;;;;;;8.30;1.52;;;;;;;35.10;19.68;99174.91;5016861;28;20491;-48
2022/05/20 09:50:25;;;;;;;8.18;2.10;;;;;;;34.93;19.92;99197.91;5034645;28;20048;-47
2022/05/20 09:52:57;;;;;;;7.20;1.42;;;;;;;35.15;19.55;99184.78;5034625;28;20487;-49
2022/05/20 09:55:29;;;;;;;5.90;1.75;;;;;;;35.06;19.64;99195.88;5034571;28;20026;-49
2022/05/20 09:58:09;;;;;;;7.28;2.00;;;;;;;34.82;19.87;99145.00;5034578;28;20100;-48
2022/05/20 10:00:36;;;;;;;5.25;1.63;;;;;;;34.48;20.02;99187.31;5034555;28;20021;-49
2022/05/20 10:03:33;;;;;;;10.23;1.90;;;;;;;34.11;20.67;99182.78;5034411;28;20037;-49
2022/05/20 10:06:12;;;;;;;5.47;1.75;;;;;;;34.23;20.48;99176.53;5034342;28;20032;-49
2022/05/20 10:08:44;;;;;;;10.43;2.22;;;;;;;35.03;20.13;99190.31;5034430;28;20041;-49
2022/05/20 10:11:31;;;;;;;9.80;1.77;;;;;;;35.80;19.38;99173.44;5034212;28;20024;-52
2022/05/20 10:14:06;;;;;;;6.10;1.65;;;;;;;35.92;19.03;99181.50;5034315;28;20063;-49
2022/05/20 10:16:55;;;;;;;5.90;1.55;;;;;;;35.99;19.13;99178.91;5033976;28;20056;-49
2022/05/20 10:20:05;;;;;;;10.10;1.83;;;;;;;35.91;18.89;99188.09;5016378;28;20071;-50
2022/05/20 10:23:00;;;;;;;4.97;1.80;;;;;;;35.57;19.95;99174.06;4972995;28;20054;-49
2022/05/20 10:25:53;;;;;;;4.63;1.58;;;;;;;35.15;19.80;99180.13;4973045;28;20053;-48
2022/05/20 10:34:10;;;;;;;8.93;1.45;;;;;;;34.24;20.29;99131.78;4973281;28;20458;-49
2022/05/20 10:36:47;;;;;;;3.53;1.67;;;;;;;33.78;21.23;99156.53;4972879;28;20174;-47
2022/05/20 10:39:55;;;;;;;4.00;1.52;;;;;;;34.13;20.80;99145.09;4972854;28;20039;-49
2022/05/20 10:42:38;;;;;;;8.30;2.00;;;;;;;34.38;20.75;99126.72;4958778;28;20571;-49
2022/05/20 10:48:54;;;;;;;10.30;1.80;;;;;;;34.10;20.54;99134.09;4972978;28;20045;-49
2022/05/20 10:51:25;;;;;;;9.38;2.25;;;;;;;33.63;20.67;99140.94;4969663;28;20035;-50
2022/05/20 10:53:56;;;;;;;9.80;2.28;;;;;;;33.02;21.12;99144.41;4972602;28;20027;-47
2022/05/20 10:56:42;;;;;;;5.10;1.65;;;;;;;32.99;21.51;99153.25;5002900;28;20041;-49
2022/05/20 10:59:29;;;;;;;4.93;1.88;;;;;;;33.02;21.46;99142.50;5033464;28;20021;-49
2022/05/20 11:02:07;;;;;;;6.68;1.80;;;;;;;33.14;21.40;99143.66;5033393;28;20033;-48
2022/05/20 11:05:14;;;;;;;9.25;1.85;;;;;;;32.65;21.80;99160.66;5033273;28;20053;-50
2022/05/20 11:08:21;;;;;;;6.38;1.70;;;;;;;32.67;21.99;99133.16;5024941;28;20112;-50
2022/05/20 11:11:22;;;;;;;6.97;2.05;;;;;;;33.42;22.18;99150.00;4993526;28;20045;-50
2022/05/20 11:14:32;;;;;;;10.07;1.73;;;;;;;34.79;20.75;99154.69;5033181;28;20486;-49
2022/05/20 11:17:22;;;;;;;5.32;1.65;;;;;;;35.39;19.89;99137.41;5032729;28;20058;-48
2022/05/20 11:20:15;;;;;;;6.78;1.60;;;;;;;35.79;19.05;99131.66;5033059;28;20029;-50
2022/05/20 11:22:40;;;;;;;6.78;1.80;;;;;;;36.17;19.08;99145.72;5015181;28;20051;-50
2022/05/20 11:25:15;;;;;;;4.05;1.65;;;;;;;36.43;19.28;99139.56;5032886;28;20544;-50
2022/05/20 11:28:33;;;;;;;4.53;1.60;;;;;;;36.14;19.52;99149.94;5015128;28;20022;-50
2022/05/20 11:31:20;;;;;;;10.40;2.13;;;;;;;35.25;20.25;99131.63;5005655;28;20037;-49
2022/05/20 11:33:58;;;;;;;7.15;1.80;;;;;;;34.36;20.84;99153.53;5032785;28;20079;-49
2022/05/20 11:37:12;;;;;;;6.70;1.70;;;;;;;33.90;21.09;99131.19;5032610;28;20101;-49
2022/05/20 11:39:57;;;;;;;9.27;1.67;;;;;;;34.18;20.79;99174.03;5019437;28;20037;-48
2022/05/20 11:42:58;;;;;;;8.98;1.95;;;;;;;34.28;20.89;99129.16;5014842;28;20063;-48
2022/05/20 11:45:41;;;;;;;8.75;2.08;;;;;;;34.28;20.84;99151.75;5012641;28;20041;-48
2022/05/20 11:48:12;;;;;;;11.75;2.10;;;;;;;34.39;21.06;99106.50;5032604;28;20206;-48
2022/05/20 11:51:13;;;;;;;4.93;1.80;;;;;;;34.62;20.58;99147.59;5032401;28;20398;-48
2022/05/20 11:53:57;;;;;;;11.25;1.80;;;;;;;35.61;20.57;99125.78;5012787;28;20500;-49
2022/05/20 11:56:44;;;;;;;18.67;2.65;;;;;;;36.69;19.29;99143.56;5032396;28;20029;-50
2022/05/20 11:59:15;;;;;;;6.35;1.80;;;;;;;36.45;18.79;99144.69;5032393;28;20051;-49
2022/05/20 12:01:43;;;;;;;4.60;1.88;;;;;;;36.27;19.26;99141.63;5032306;28;20060;-48
2022/05/20 12:04:11;;;;;;;9.45;2.22;;;;;;;36.30;19.48;99128.03;5032215;28;20028;-49
2022/05/20 12:07:05;;;;;;;7.63;1.70;;;;;;;36.31;18.70;99128.81;5032185;28;20521;-48
2022/05/20 12:09:44;;;;;;;10.05;2.28;;;;;;;35.23;19.73;99121.06;5014425;28;20044;-47
2022/05/20 12:12:22;;;;;;;9.32;2.53;;;;;;;34.81;20.90;99136.03;5014655;28;20025;-48
2022/05/20 12:15:21;;;;;;;10.30;2.25;;;;;;;34.88;20.41;99121.00;5032326;28;20598;-48
2022/05/20 12:17:50;;;;;;;10.15;2.22;;;;;;;35.02;20.38;99121.34;5031789;28;20632;-48
2022/05/20 12:26:03;;;;;;;12.40;2.65;;;;;;;34.45;20.22;99109.78;5031990;28;20061;-48
2022/05/20 12:28:36;;;;;;;10.45;1.90;;;;;;;34.20;20.90;99103.66;5031504;28;20068;-49
2022/05/20 12:31:11;;;;;;;8.77;2.20;;;;;;;33.86;21.15;99116.69;5031826;28;20036;-49
2022/05/20 12:34:05;;;;;;;9.02;1.73;;;;;;;33.85;21.29;99127.91;5031668;28;20255;-48
2022/05/20 12:36:42;;;;;;;12.90;2.60;;;;;;;33.81;20.96;99095.97;5031775;28;20018;-48